Historyczne dane pomiarowe

Dodano dane terminowe – wersja testowa.

Dane z okresu 1951-2019

Wersja bazy: 1.34 [2019-03-16, lista zmian], aktualizacja planowana na 2019-04-15

Dane meteo z obszaru Polski uzyskane na podstawie danych udostępnionych przez Instytut Meteorologii i Gospodarki Wodnej – Państwowy Instytut Badawczy.

 

Wybierz Datę:    

       

TemperaturaWilgotnośćWiatrCiśnienieOpadyŚniegCzas trwania zjawisk
 Stacja t tx tn tng RH VA  wxwx mslp ppp RRR   cm mm wxwxwxwxwxwxwx
1952-02-26 -2.8 -1.9 -5.7 -5.5 81.3- 6.7 3.3---- 0.6-- 14---------
1952-02-27 -6.1 -1.8 -8.8 -4.9 79.0- 6.7 4.3---- 0.0-- 14---------
1952-02-28-12.8 -7.3-15.6-17.1 70.5- 2.7 1.7---- 0.0-- 14---------
1952-02-29-10.0 -3.6-19.7-20.6 73.5- 4.7 1.7---- 0.0-- 14---------
1952-03-01 -5.1 -0.4-12.0-15.4 87.0- 8.0 9.0---- 5.6-- 14---------
1952-03-02 -4.4 -1.4 -6.8 -8.2 76.3- 5.0 18.0---- 0.0-- 14---------
1952-03-03 -4.8 -0.1 -8.4-12.5 76.8- 7.7 3.7---- 0.0-- 14---------
1952-03-04-12.2 -5.6-18.8-21.5 85.0- 3.7 4.7---- 1.2-- 14---------
1952-03-05 -5.0 -4.1-11.4-15.0 88.5- 8.0 13.7---- 0.4-- 14---------
1952-03-06 -7.5 -4.9-11.6-12.5 69.5- 5.7 15.7---- 0.0-- 14---------
1952-03-07 -7.4 -4.3 -9.6-10.5 62.5- 6.3 13.7---- 0.0-- 14---------
1952-03-08 -8.9 1.1-16.9-18.5 63.0- 0.0 1.7---- 0.0-- 14---------
1952-03-09 -7.8 4.4-20.9-22.6 58.0- 0.0 2.0---- 0.0-- 14---------
1952-03-10 -4.3 8.1-16.2-19.5 56.0- 0.3 1.7---- 0.0-- 14---------
1952-03-11 -2.1 9.3-13.9-18.1 61.0- 0.0 2.7---- 0.0-- 13---------
1952-03-12 0.5 5.9 -6.0-11.3 81.8- 5.0 3.7---- 0.0-- 13---------
1952-03-13 0.8 3.6 0.4 -1.0 93.8- 8.0 7.0---- 5.1-- 8---------
1952-03-14 -8.8 0.6-12.0 -2.8 83.3- 5.3 8.3---- 0.6-- 11---------
1952-03-15 -4.5 1.1-19.9-23.8 77.0- 4.3 4.7---- 0.0-- 12---------
1952-03-16 0.8 4.2 -0.7 -2.3 64.0- 3.0 7.7---- 0.0-- 12---------
1952-03-17 -1.2 3.1 -3.8 -5.9 75.8- 5.0 6.3---- 0.0-- 8---------
1952-03-18 -9.1 -3.4-10.9-14.0 65.5- 1.3 7.0---- 0.0-- 7---------
1952-03-19 -7.7 -2.7-16.0-19.9 73.3- 3.3 8.0---- 0.5-- 7---------
1952-03-20 -7.8 -4.6-15.4-17.5 78.8- 6.0 6.3---- 0.3-- 9---------
1952-03-21-11.0 -3.2-16.1-11.3 86.5- 5.3 1.0---- 1.1-- 10---------
1952-03-22-14.7 -4.1-24.9-28.9 73.5- 2.3 0.3---- 0.0-- 15---------
1952-03-23-10.0 -3.6-15.4-20.8 69.8- 2.7 4.7---- 0.0-- 15---------
1952-03-24 -3.2 0.2-17.9-22.5 81.8- 7.0 6.7---- 1.0-- 13---------
1952-03-25 -6.6 -0.1-11.5 -7.0 88.0- 5.3 2.7---- 0.0-- 15---------
1952-03-26 -9.1 -4.8-15.3-22.0 70.3- 3.7 3.0---- 0.0-- 15---------
183.9 ms

 

Źródłem pochodzenia danych jest Instytut Meteorologii i Gospodarki Wodnej – Państwowy Instytut Badawczy. Dane Instytutu Meteorologii i Gospodarki Wodnej – Państwowego Instytutu Badawczego zostały przetworzone.

Dane źródłowe można odnaleźć na stronie https://dane.imgw.pl